Homer, NY (13077)

12:10 AM EDT on October 31, 2014 (GMT -0400)
cortland | Change Station
CLOSE
Current Station
Personal Weather Station
Location: Cortland, NY
Elevation: 1148 ft
Nearby Weather Stations

Elev 1148 ft 42.65 °N, 76.12 °W | Updated 4 minutes ago

Partly Cloudy
Partly Cloudy
31.5 °F
Feels Like 32 °F
N
0.0
Wind Variable Wind from South
Gusts 0.0 mph

Today
High -- | Low -- °F
--% Chance of Precip.
Yesterday
High -- | Low -- °F
Precip. -- in
7:37 AM 5:58 PM
Waxing Crescent, 51% visible
Pressure 30.04 in
Visibility 7.0 miles
Clouds Mostly Cloudy 3900 ft
Windchill 32 °F
Dew Point 30 °F
Humidity 95%
Rainfall 0.00 in
Snow Depth Not available.
UV 0 out of 12
Pollen .10 out of 12
Air Quality Not available.
Flu Activity Not available.
METAR KN03 310355Z AUTO 00000KT 7SM BKN039 00/00 A3004 RMK AO2

More Conditions Fewer Conditions

Pressure 30.04 in
Visibility 7.0 miles
Clouds Mostly Cloudy 3900 ft
Windchill 32 °F
Dew Point 30 °F
Humidity 95%
Rainfall 0.00 in
Snow Depth Not available.
UV 0 out of 12
Pollen .10 out of 12
Air Quality Not available.
Flu Activity Not available.
METAR KN03 310355Z AUTO 00000KT 7SM BKN039 00/00 A3004 RMK AO2

More Conditions Fewer Conditions

10-Day Weather Forecast

Almanac

Astronomy

Oct. 31, 2014 Rise Set
Actual Time
Civil Twilight
Nautical Twilight
Astronomical Twilight
Moon
Length of Visible Light
Length of Day
Tomorrow will be .
, % of the Moon is Illuminated

Today's Extremes

State Highs State Lows

Community

WunderPhotos

Upload Photos

1,766,564 photos uploaded!

WunderBlogs® & News

Nearby

Air Quality

  Air Quality AQ Index Pollutant
Not available.

Snow Depth

Station Depth Elevation

Earthquake Activity

City Distance Mag. Time & Date
Minimum magnitude displayed is 2.5.

Coastal Water Temperatures

Place Temperature

Nearby Weather Stations